createdAt,value
2018-11-29T00:02:04.822Z,29.10
2018-11-29T00:04:39.486Z,28.43
2018-11-29T00:07:14.612Z,28.87
2018-11-29T00:09:49.316Z,29.40
2018-11-29T00:12:23.844Z,29.73
2018-11-29T00:14:58.678Z,29.43
2018-11-29T00:17:33.150Z,29.10
2018-11-29T00:20:10.893Z,28.83
2018-11-29T00:22:46.654Z,28.47
2018-11-29T00:25:21.814Z,27.83
2018-11-29T00:27:56.414Z,27.97
2018-11-29T00:30:31.410Z,28.30
2018-11-29T00:33:08.796Z,28.13
2018-11-29T00:35:43.235Z,28.50
2018-11-29T00:38:17.779Z,27.60
2018-11-29T00:40:52.288Z,26.77
2018-11-29T00:43:26.744Z,26.77
2018-11-29T00:46:01.703Z,28.47
2018-11-29T00:48:36.215Z,26.23
2018-11-29T00:51:10.819Z,28.07
2018-11-29T00:53:45.226Z,26.43
2018-11-29T00:56:19.745Z,27.43
2018-11-29T00:58:54.686Z,26.63
2018-11-29T01:01:29.131Z,26.53
2018-11-29T01:04:16.104Z,26.53
2018-11-29T01:06:51.169Z,27.13
2018-11-29T01:09:25.792Z,27.37
2018-11-29T01:12:00.681Z,28.20
2018-11-29T01:14:35.033Z,27.70
2018-11-29T01:17:09.792Z,28.93
2018-11-29T01:19:44.590Z,28.97
2018-11-29T01:22:19.368Z,29.37
2018-11-29T01:24:53.790Z,28.93
2018-11-29T01:27:28.611Z,28.80
2018-11-29T01:30:03.318Z,28.10
2018-11-29T01:32:38.405Z,27.47
2018-11-29T01:35:15.082Z,28.77
2018-11-29T01:37:50.392Z,29.20
2018-11-29T01:40:25.367Z,29.63
2018-11-29T01:43:00.180Z,28.20
2018-11-29T01:45:43.579Z,29.00
2018-11-29T01:48:18.123Z,29.50
2018-11-29T01:50:52.640Z,28.97
2018-11-29T01:53:31.990Z,29.13
2018-11-29T01:56:07.487Z,30.33
2018-11-29T01:58:42.400Z,28.67
2018-11-29T02:01:17.596Z,29.93
2018-11-29T02:03:52.207Z,29.17
2018-11-29T02:06:27.195Z,28.47
2018-11-29T02:09:01.554Z,28.03
2018-11-29T02:11:35.990Z,27.53
2018-11-29T02:14:10.963Z,28.13
2018-11-29T02:16:45.655Z,26.83
2018-11-29T02:19:20.419Z,27.20
2018-11-29T02:21:54.819Z,27.63
2018-11-29T02:24:29.815Z,26.57
2018-11-29T02:27:04.431Z,28.90
2018-11-29T02:29:39.259Z,28.30
2018-11-29T02:32:13.738Z,27.57
2018-11-29T02:34:48.411Z,29.20
2018-11-29T02:37:22.926Z,28.33
2018-11-29T02:39:57.576Z,28.20
2018-11-29T02:42:32.352Z,27.20
2018-11-29T02:45:09.482Z,27.53
2018-11-29T02:47:43.868Z,26.43
2018-11-29T02:50:19.587Z,26.60
2018-11-29T02:52:54.031Z,28.77
2018-11-29T02:55:28.909Z,28.40
2018-11-29T02:58:04.608Z,28.13
2018-11-29T03:00:39.748Z,27.30
2018-11-29T03:03:37.290Z,26.60
2018-11-29T03:06:11.915Z,25.67
2018-11-29T03:08:46.479Z,26.93
2018-11-29T03:11:20.921Z,27.20
2018-11-29T03:13:55.668Z,26.90
2018-11-29T03:16:30.036Z,26.33
2018-11-29T03:19:04.800Z,26.80
2018-11-29T03:21:39.490Z,26.90
2018-11-29T03:24:14.422Z,25.83
2018-11-29T03:26:49.158Z,25.20
2018-11-29T03:29:23.582Z,25.60
2018-11-29T03:31:58.323Z,25.27
2018-11-29T03:34:33.335Z,23.93
2018-11-29T03:37:08.524Z,25.23
2018-11-29T03:39:44.126Z,25.77
2018-11-29T03:42:19.732Z,24.50
2018-11-29T03:44:54.519Z,26.07
2018-11-29T03:47:29.024Z,25.27
2018-11-29T03:50:03.873Z,25.80
2018-11-29T03:52:38.223Z,25.90
2018-11-29T03:55:13.111Z,26.37
2018-11-29T03:57:47.759Z,25.93
2018-11-29T04:00:22.975Z,26.50
2018-11-29T04:02:57.584Z,25.97
2018-11-29T04:05:32.063Z,25.60
2018-11-29T04:08:07.041Z,25.07
2018-11-29T04:10:41.938Z,27.17
2018-11-29T04:13:16.923Z,27.00
2018-11-29T04:15:51.866Z,25.47
2018-11-29T04:18:26.302Z,25.50
2018-11-29T04:21:00.976Z,25.47
2018-11-29T04:23:35.495Z,25.33
2018-11-29T04:26:10.407Z,25.23
2018-11-29T04:28:44.835Z,26.37
2018-11-29T04:31:19.622Z,25.47
2018-11-29T04:33:54.356Z,24.30
2018-11-29T04:36:29.220Z,25.27
2018-11-29T04:39:04.313Z,25.83
2018-11-29T04:41:38.895Z,24.70
2018-11-29T04:44:14.028Z,24.07
2018-11-29T04:46:49.496Z,24.30
2018-11-29T04:49:23.787Z,23.97
2018-11-29T04:51:58.110Z,24.70
2018-11-29T04:54:32.449Z,24.13
2018-11-29T04:57:06.899Z,24.93
2018-11-29T04:59:42.135Z,24.97
2018-11-29T05:02:17.375Z,24.40
2018-11-29T05:04:52.132Z,24.67
2018-11-29T05:07:26.775Z,25.03
2018-11-29T05:10:01.401Z,25.73
2018-11-29T05:12:36.591Z,24.50
2018-11-29T05:15:12.263Z,24.30
2018-11-29T05:17:46.613Z,23.97
2018-11-29T05:20:21.296Z,25.33
2018-11-29T05:22:55.850Z,24.13
2018-11-29T05:25:30.380Z,22.97
2018-11-29T05:28:05.479Z,24.17
2018-11-29T05:30:40.315Z,24.73
2018-11-29T05:33:14.719Z,24.57
2018-11-29T05:35:49.035Z,24.13
2018-11-29T05:38:23.951Z,22.87
2018-11-29T05:40:58.982Z,23.77
2018-11-29T05:43:33.422Z,23.20
2018-11-29T05:46:08.360Z,23.37
2018-11-29T05:48:43.170Z,24.13
2018-11-29T05:51:17.462Z,23.97
2018-11-29T05:53:51.963Z,23.73
2018-11-29T05:56:26.713Z,24.23
2018-11-29T05:59:01.088Z,24.17
2018-11-29T06:01:44.069Z,23.93
2018-11-29T06:04:18.669Z,23.90
2018-11-29T06:06:53.031Z,25.37
2018-11-29T06:09:27.600Z,24.50
2018-11-29T06:12:02.667Z,24.23
2018-11-29T06:14:37.274Z,24.33
2018-11-29T06:17:11.640Z,25.50
2018-11-29T06:19:46.251Z,25.00
2018-11-29T06:22:20.860Z,24.37
2018-11-29T06:24:55.282Z,24.60
2018-11-29T06:27:29.790Z,23.93
2018-11-29T06:30:04.788Z,23.70
2018-11-29T06:32:39.363Z,24.27
2018-11-29T06:35:14.195Z,24.20
2018-11-29T06:37:48.571Z,25.80
2018-11-29T06:40:23.002Z,24.57
2018-11-29T06:42:57.922Z,24.20
2018-11-29T06:45:33.314Z,23.63
2018-11-29T06:48:07.916Z,23.97
2018-11-29T06:50:42.321Z,23.37
2018-11-29T06:53:23.205Z,23.93
2018-11-29T06:55:58.943Z,24.00
2018-11-29T06:58:33.300Z,24.40
2018-11-29T07:01:07.781Z,24.30
2018-11-29T07:03:43.330Z,24.27
2018-11-29T07:06:17.168Z,23.63
2018-11-29T07:08:51.535Z,23.27
2018-11-29T07:11:26.222Z,23.40
2018-11-29T07:14:00.758Z,23.47
2018-11-29T07:16:35.454Z,22.13
2018-11-29T07:19:14.905Z,23.07
2018-11-29T07:21:59.609Z,23.10
2018-11-29T07:24:34.311Z,20.77
2018-11-29T07:27:09.023Z,20.57
2018-11-29T07:29:44.060Z,20.87
2018-11-29T07:32:22.891Z,20.67
2018-11-29T07:34:57.196Z,21.37
2018-11-29T07:37:31.975Z,23.73
2018-11-29T07:40:10.286Z,23.47
2018-11-29T07:42:45.794Z,25.33
2018-11-29T07:45:20.837Z,25.27
2018-11-29T07:47:55.338Z,25.20
2018-11-29T07:50:29.666Z,24.90
2018-11-29T07:53:04.630Z,25.00
2018-11-29T07:55:39.584Z,25.47
2018-11-29T07:58:14.654Z,25.87
2018-11-29T08:00:49.042Z,25.63
2018-11-29T08:03:23.399Z,25.27
2018-11-29T08:05:57.843Z,25.93
2018-11-29T08:08:32.737Z,26.40
2018-11-29T08:11:11.473Z,27.27
2018-11-29T08:13:46.003Z,25.47
2018-11-29T08:16:20.687Z,24.20
2018-11-29T08:18:55.032Z,24.07
2018-11-29T08:21:29.910Z,24.30
2018-11-29T08:24:04.312Z,23.47
2018-11-29T08:26:38.687Z,23.90
2018-11-29T08:29:13.502Z,24.77
2018-11-29T08:31:47.918Z,25.13
2018-11-29T08:34:22.243Z,23.57
2018-11-29T08:36:56.990Z,23.13
2018-11-29T08:39:31.426Z,24.10
2018-11-29T08:42:06.322Z,23.10
2018-11-29T08:44:41.095Z,22.83
2018-11-29T08:47:15.391Z,23.13
2018-11-29T08:50:01.083Z,22.37
2018-11-29T08:52:36.549Z,23.20
2018-11-29T08:55:14.780Z,22.47
2018-11-29T08:57:50.192Z,22.23
2018-11-29T09:00:24.962Z,20.43
2018-11-29T09:02:59.604Z,21.87
2018-11-29T09:05:34.216Z,20.73
2018-11-29T09:08:08.855Z,20.77
2018-11-29T09:10:43.560Z,21.33
2018-11-29T09:13:18.039Z,22.23
2018-11-29T09:15:52.801Z,22.33
2018-11-29T09:18:27.228Z,23.00
2018-11-29T09:21:01.966Z,22.13
2018-11-29T09:23:36.822Z,21.40
2018-11-29T09:26:11.320Z,21.63
2018-11-29T09:28:46.439Z,22.27
2018-11-29T09:31:21.482Z,20.77
2018-11-29T09:33:56.091Z,21.50
2018-11-29T09:36:30.470Z,21.77
2018-11-29T09:39:08.717Z,22.53
2018-11-29T09:41:43.627Z,22.00
2018-11-29T09:44:18.226Z,21.87
2018-11-29T09:46:52.837Z,21.33
2018-11-29T09:49:27.671Z,22.00
2018-11-29T09:52:02.543Z,21.87
2018-11-29T09:54:37.078Z,23.13
2018-11-29T09:57:11.374Z,21.60
2018-11-29T09:59:46.260Z,21.43
2018-11-29T10:02:21.076Z,23.03
2018-11-29T10:04:55.356Z,23.13
2018-11-29T10:07:30.347Z,22.13
2018-11-29T10:10:06.401Z,20.83
2018-11-29T10:12:41.681Z,20.37
2018-11-29T10:15:16.673Z,20.47
2018-11-29T10:17:51.687Z,20.87
2018-11-29T10:20:26.389Z,21.63
2018-11-29T10:23:01.179Z,22.17
2018-11-29T10:25:36.587Z,22.80
2018-11-29T10:28:12.775Z,22.47
2018-11-29T10:30:52.994Z,22.50
2018-11-29T10:33:27.842Z,21.63
2018-11-29T10:36:02.715Z,20.67
2018-11-29T10:38:37.243Z,21.83
2018-11-29T10:41:12.910Z,22.10
2018-11-29T10:43:46.779Z,21.50
2018-11-29T10:46:21.131Z,21.07
2018-11-29T10:48:55.948Z,21.33
2018-11-29T10:51:30.235Z,20.77
2018-11-29T10:54:05.062Z,20.43
2018-11-29T10:56:39.612Z,20.07
2018-11-29T10:59:14.363Z,19.90
2018-11-29T11:01:54.387Z,19.17
2018-11-29T11:04:28.943Z,20.53
2018-11-29T11:07:03.280Z,20.77
2018-11-29T11:09:37.788Z,20.80
2018-11-29T11:12:12.533Z,19.57
2018-11-29T11:14:47.313Z,20.03
2018-11-29T11:17:23.300Z,20.40
2018-11-29T11:19:58.179Z,21.20
2018-11-29T11:22:32.734Z,20.30
2018-11-29T11:25:09.831Z,21.33
2018-11-29T11:27:44.283Z,20.67
2018-11-29T11:30:20.667Z,19.73
2018-11-29T11:32:59.418Z,19.70
2018-11-29T11:35:42.037Z,20.23
2018-11-29T11:38:16.431Z,19.97
2018-11-29T11:40:50.995Z,19.67
2018-11-29T11:43:25.888Z,18.97
2018-11-29T11:46:00.394Z,18.67
2018-11-29T11:48:34.823Z,18.80
2018-11-29T11:51:09.698Z,17.93
2018-11-29T11:53:45.221Z,18.53
2018-11-29T11:56:20.256Z,18.37
2018-11-29T11:58:56.304Z,18.27
2018-11-29T12:01:31.432Z,18.87
2018-11-29T12:04:06.891Z,19.10
2018-11-29T12:06:41.447Z,19.70
2018-11-29T12:09:16.352Z,18.40
2018-11-29T12:11:52.998Z,19.50
2018-11-29T12:14:27.479Z,19.17
2018-11-29T12:17:01.953Z,19.63
2018-11-29T12:19:36.820Z,20.17
2018-11-29T12:22:11.635Z,19.13
2018-11-29T12:24:46.565Z,20.33
2018-11-29T12:27:21.086Z,18.50
2018-11-29T12:29:55.942Z,19.13
2018-11-29T12:32:30.234Z,18.67
2018-11-29T12:35:05.131Z,18.87
2018-11-29T12:37:39.914Z,18.30
2018-11-29T12:40:15.413Z,18.87
2018-11-29T12:42:50.593Z,19.73
2018-11-29T12:45:24.912Z,19.47
2018-11-29T12:47:59.550Z,18.27
2018-11-29T12:50:41.113Z,19.60
2018-11-29T12:53:15.475Z,18.63
2018-11-29T12:55:49.911Z,19.17
2018-11-29T12:58:24.236Z,20.17
2018-11-29T13:00:58.750Z,19.17
2018-11-29T13:03:33.428Z,20.20
2018-11-29T13:06:08.039Z,20.83
2018-11-29T13:08:42.550Z,20.87
2018-11-29T13:11:17.742Z,19.63
2018-11-29T13:13:52.773Z,20.53
2018-11-29T13:16:27.401Z,21.93
2018-11-29T13:19:02.191Z,19.80
2018-11-29T13:21:36.799Z,20.27
2018-11-29T13:24:11.192Z,20.87
2018-11-29T13:26:45.719Z,19.83
2018-11-29T13:29:20.228Z,21.23
2018-11-29T13:31:55.170Z,94.67
2018-11-29T13:34:29.985Z,38.27
2018-11-29T13:37:04.964Z,71.80
2018-11-29T13:39:39.738Z,29.90
2018-11-29T13:42:14.183Z,24.23
2018-11-29T13:44:48.659Z,25.37
2018-11-29T13:47:23.503Z,24.40
2018-11-29T13:49:58.128Z,21.60
2018-11-29T13:52:32.899Z,20.73
2018-11-29T13:55:08.689Z,20.83
2018-11-29T13:57:45.111Z,21.03
2018-11-29T14:00:21.953Z,21.67
2018-11-29T14:03:01.582Z,22.13
2018-11-29T14:05:36.775Z,21.93
2018-11-29T14:08:11.458Z,23.43
2018-11-29T14:10:51.391Z,23.07
2018-11-29T14:13:26.008Z,23.13
2018-11-29T14:16:00.763Z,24.33
2018-11-29T14:18:35.259Z,22.27
2018-11-29T14:21:09.855Z,23.90
2018-11-29T14:23:44.321Z,23.43
2018-11-29T14:26:18.747Z,22.53
2018-11-29T14:28:53.535Z,22.80
2018-11-29T14:31:28.486Z,22.83
2018-11-29T14:34:03.079Z,22.83
2018-11-29T14:36:37.676Z,21.93
2018-11-29T14:39:12.637Z,22.83
2018-11-29T14:41:47.270Z,23.80
2018-11-29T14:44:21.811Z,22.60
2018-11-29T14:46:56.436Z,24.27
2018-11-29T14:49:30.755Z,22.50
2018-11-29T14:52:06.000Z,22.50
2018-11-29T14:54:40.531Z,24.80
2018-11-29T14:57:15.471Z,24.57
2018-11-29T14:59:50.292Z,24.50
2018-11-29T15:02:24.788Z,23.80
2018-11-29T15:04:59.311Z,24.93
2018-11-29T15:07:34.206Z,25.13
2018-11-29T15:10:10.337Z,24.10
2018-11-29T15:12:45.310Z,24.53
2018-11-29T15:15:19.840Z,24.80
2018-11-29T15:17:54.832Z,25.30
2018-11-29T15:20:33.799Z,24.80
2018-11-29T15:23:09.614Z,25.60
2018-11-29T15:25:44.746Z,25.50
2018-11-29T15:28:19.515Z,23.93
2018-11-29T15:30:54.055Z,25.60
2018-11-29T15:33:28.803Z,26.07
2018-11-29T15:36:04.050Z,27.67
2018-11-29T15:38:38.406Z,26.70
2018-11-29T15:41:18.051Z,27.17
2018-11-29T15:43:47.606Z,26.17
2018-11-29T15:46:22.145Z,26.37
2018-11-29T15:48:56.600Z,25.50
2018-11-29T15:51:31.419Z,25.27
2018-11-29T15:54:07.095Z,26.07
2018-11-29T15:56:41.823Z,26.40
2018-11-29T15:59:16.286Z,25.97
2018-11-29T16:01:51.151Z,26.80
2018-11-29T16:04:25.875Z,25.43
2018-11-29T16:07:00.745Z,26.30
2018-11-29T16:09:35.136Z,26.07
2018-11-29T16:12:09.512Z,26.43
2018-11-29T16:14:44.325Z,26.03
2018-11-29T16:17:19.225Z,25.90
2018-11-29T16:19:53.754Z,26.43
2018-11-29T16:22:28.623Z,27.27
2018-11-29T16:25:03.813Z,25.93
2018-11-29T16:27:38.090Z,26.23
2018-11-29T16:30:33.902Z,27.00
2018-11-29T16:33:25.936Z,25.60
2018-11-29T16:36:00.721Z,26.80
2018-11-29T16:38:35.370Z,26.70
2018-11-29T16:41:10.197Z,27.07
2018-11-29T16:43:44.959Z,28.10
2018-11-29T16:46:19.522Z,28.07
2018-11-29T16:48:54.335Z,27.67
2018-11-29T16:51:29.219Z,28.17
2018-11-29T16:54:03.628Z,26.03
2018-11-29T16:56:38.071Z,28.90
2018-11-29T16:59:12.499Z,27.50
2018-11-29T17:01:46.811Z,28.83
2018-11-29T17:04:21.135Z,29.00
2018-11-29T17:06:56.336Z,27.47
2018-11-29T17:09:30.957Z,28.23
2018-11-29T17:12:06.211Z,28.17
2018-11-29T17:14:40.846Z,29.00
2018-11-29T17:17:15.323Z,28.23
2018-11-29T17:19:49.826Z,29.13
2018-11-29T17:22:24.307Z,28.83
2018-11-29T17:24:58.884Z,29.27
2018-11-29T17:27:33.558Z,27.80
2018-11-29T17:30:17.870Z,27.97
2018-11-29T17:32:56.606Z,26.07
2018-11-29T17:35:31.262Z,29.17
2018-11-29T17:38:05.950Z,28.47
2018-11-29T17:40:40.410Z,28.00
2018-11-29T17:43:14.904Z,28.83
2018-11-29T17:45:49.584Z,29.70
2018-11-29T17:48:24.334Z,28.47
2018-11-29T17:50:59.131Z,28.43
2018-11-29T17:53:33.677Z,28.83
2018-11-29T17:56:08.496Z,27.80
2018-11-29T17:58:43.314Z,29.70
2018-11-29T18:01:18.050Z,30.73
2018-11-29T18:03:52.570Z,30.60
2018-11-29T18:06:26.976Z,30.63
2018-11-29T18:09:01.460Z,30.23
2018-11-29T18:11:35.814Z,30.20
2018-11-29T18:14:10.250Z,30.97
2018-11-29T18:16:44.678Z,29.97
2018-11-29T18:19:19.399Z,30.83
2018-11-29T18:21:53.988Z,31.47
2018-11-29T18:24:28.175Z,30.80
2018-11-29T18:27:02.462Z,31.63
2018-11-29T18:29:36.915Z,30.90
2018-11-29T18:32:11.374Z,31.83
2018-11-29T18:34:45.806Z,31.97
2018-11-29T18:37:20.266Z,31.70
2018-11-29T18:39:54.595Z,31.70
2018-11-29T18:42:29.259Z,32.87
2018-11-29T18:45:05.143Z,32.57
2018-11-29T18:47:39.765Z,34.90
2018-11-29T18:50:16.783Z,36.43
2018-11-29T18:52:51.628Z,33.67
2018-11-29T18:55:27.354Z,33.63
2018-11-29T18:58:02.119Z,33.63
2018-11-29T19:00:37.573Z,33.63
2018-11-29T19:03:12.267Z,32.83
2018-11-29T19:05:46.571Z,33.80
2018-11-29T19:08:21.408Z,31.47
2018-11-29T19:10:55.885Z,34.40
2018-11-29T19:13:30.648Z,32.30
2018-11-29T19:16:06.369Z,30.77
2018-11-29T19:18:40.924Z,32.50
2018-11-29T19:21:15.425Z,32.33
2018-11-29T19:23:50.618Z,33.07
2018-11-29T19:26:25.234Z,33.57
2018-11-29T19:28:59.915Z,32.27
2018-11-29T19:31:34.479Z,32.20
2018-11-29T19:34:09.635Z,33.53
2018-11-29T19:36:44.428Z,32.10
2018-11-29T19:39:18.971Z,32.63
2018-11-29T19:41:53.519Z,33.43
2018-11-29T19:44:27.795Z,32.37
2018-11-29T19:47:02.220Z,32.77
2018-11-29T19:49:36.838Z,33.00
2018-11-29T19:52:11.511Z,32.57
2018-11-29T19:54:46.115Z,31.50
2018-11-29T19:57:20.739Z,33.40
2018-11-29T19:59:55.827Z,32.47
2018-11-29T20:02:30.575Z,32.47
2018-11-29T20:05:05.708Z,32.70
2018-11-29T20:07:40.195Z,32.60
2018-11-29T20:10:18.619Z,33.67
2018-11-29T20:12:59.957Z,32.13
2018-11-29T20:15:36.150Z,32.57
2018-11-29T20:18:11.743Z,32.33
2018-11-29T20:20:46.665Z,32.37
2018-11-29T20:23:21.118Z,32.60
2018-11-29T20:25:55.672Z,31.43
2018-11-29T20:28:30.552Z,31.83
2018-11-29T20:31:06.108Z,31.53
2018-11-29T20:33:40.643Z,32.53
2018-11-29T20:36:15.274Z,32.27
2018-11-29T20:38:49.735Z,31.30
2018-11-29T20:41:24.835Z,32.17
2018-11-29T20:43:59.614Z,31.57
2018-11-29T20:46:34.673Z,32.80
2018-11-29T20:49:09.589Z,32.03
2018-11-29T20:51:44.520Z,32.50
2018-11-29T20:54:18.998Z,32.60
2018-11-29T20:56:53.692Z,33.13
2018-11-29T20:59:28.226Z,31.30
2018-11-29T21:02:02.819Z,32.10
2018-11-29T21:04:37.285Z,32.43
2018-11-29T21:07:11.567Z,31.10
2018-11-29T21:09:46.027Z,31.33
2018-11-29T21:12:20.628Z,31.63
2018-11-29T21:14:55.610Z,31.53
2018-11-29T21:17:30.859Z,32.70
2018-11-29T21:20:08.593Z,32.70
2018-11-29T21:22:45.003Z,31.77
2018-11-29T21:25:24.091Z,32.30
2018-11-29T21:27:58.830Z,33.77
2018-11-29T21:30:33.617Z,32.30
2018-11-29T21:33:09.137Z,32.90
2018-11-29T21:35:44.016Z,32.93
2018-11-29T21:38:21.066Z,33.43
2018-11-29T21:41:00.875Z,33.47
2018-11-29T21:43:35.426Z,31.40
2018-11-29T21:46:10.427Z,32.20
2018-11-29T21:48:45.151Z,32.73
2018-11-29T21:51:19.626Z,32.20
2018-11-29T21:53:54.471Z,31.67
2018-11-29T21:56:29.380Z,31.40
2018-11-29T21:59:03.838Z,31.27
2018-11-29T22:01:38.844Z,32.27
2018-11-29T22:04:13.238Z,31.47
2018-11-29T22:06:48.107Z,33.77
2018-11-29T22:09:22.348Z,33.87
2018-11-29T22:11:56.786Z,33.20
2018-11-29T22:14:31.671Z,32.67
2018-11-29T22:17:06.000Z,32.30
2018-11-29T22:19:40.500Z,32.90
2018-11-29T22:22:15.586Z,33.40
2018-11-29T22:24:49.954Z,32.43
2018-11-29T22:27:25.160Z,33.37
2018-11-29T22:29:59.523Z,33.40
2018-11-29T22:32:34.291Z,33.43
2018-11-29T22:35:09.333Z,33.07
2018-11-29T22:37:44.067Z,32.47
2018-11-29T22:40:19.329Z,31.80
2018-11-29T22:42:54.130Z,34.17
2018-11-29T22:45:29.144Z,33.23
2018-11-29T22:48:04.530Z,34.10
2018-11-29T22:50:39.516Z,32.77
2018-11-29T22:53:13.974Z,33.60
2018-11-29T22:55:48.544Z,32.90
2018-11-29T22:58:23.223Z,32.23
2018-11-29T23:00:57.672Z,33.07
2018-11-29T23:03:32.331Z,33.03
2018-11-29T23:06:07.195Z,33.43
2018-11-29T23:08:41.651Z,33.67
2018-11-29T23:11:16.271Z,33.10
2018-11-29T23:13:51.063Z,33.17
2018-11-29T23:16:25.552Z,32.07
2018-11-29T23:19:00.374Z,33.03
2018-11-29T23:21:34.911Z,31.67
2018-11-29T23:24:09.459Z,32.63
2018-11-29T23:26:43.809Z,31.97
2018-11-29T23:29:18.268Z,32.80
2018-11-29T23:31:53.600Z,32.53
2018-11-29T23:34:28.422Z,32.33
2018-11-29T23:37:03.038Z,32.37
2018-11-29T23:39:37.441Z,31.17
2018-11-29T23:42:11.745Z,32.33
2018-11-29T23:44:46.499Z,31.47
2018-11-29T23:47:21.159Z,33.10
2018-11-29T23:49:56.222Z,31.00
2018-11-29T23:52:30.798Z,32.57
2018-11-29T23:55:06.890Z,31.93
2018-11-29T23:57:41.295Z,31.67
